Time;durP1;ratioP1;P1;durP2;ratioP2;P2;SDS_P1;SDS_P2;PMS_P1;PMS_P2;Temp;Humidity;BMP_temperature;BMP_pressure;BME280_temperature;BME280_humidity;BME280_pressure;Samples;Min_cycle;Max_cycle;Signal;HPM_P1;HPM_P2
2022/01/21 00:00:00;;;;;;;4.82;1.88;;;1.40;75.30;;;0.11;62.89;95196.38;4717370;30;20236;-87
2022/01/21 00:02:36;;;;;;;5.22;1.50;;;1.20;75.20;;;0.04;62.53;95191.81;4719342;30;20868;-87
2022/01/21 00:05:04;;;;;;;7.53;2.00;;;1.20;75.10;;;-0.06;62.49;95182.22;4704464;30;20255;-87
2022/01/21 00:07:32;;;;;;;3.67;1.83;;;1.20;75.10;;;-0.12;62.44;95198.19;4704587;30;20278;-87
2022/01/21 00:10:00;;;;;;;4.57;1.70;;;1.10;74.60;;;-0.22;62.30;95216.13;4704688;30;20248;-87
2022/01/21 00:12:30;;;;;;;4.63;1.75;;;1.10;75.00;;;-0.25;62.33;95215.53;4704584;30;20660;-86
2022/01/21 00:14:57;;;;;;;5.47;1.65;;;1.00;74.80;;;-0.38;62.52;95201.00;4718634;30;20240;-87
2022/01/21 00:17:25;;;;;;;4.65;1.63;;;1.00;74.60;;;-0.45;62.72;95196.41;4718639;30;20235;-88
2022/01/21 00:30:04;;;;;;;4.45;1.83;;;1.00;74.30;;;-0.47;62.19;95195.72;4704693;30;20243;-87
2022/01/21 00:30:58;;;;;;;5.22;1.60;;;0.60;74.20;;;-0.77;62.15;95228.81;4718644;30;20188;-87
2022/01/21 00:33:26;;;;;;;5.63;1.80;;;0.60;74.20;;;-0.87;62.21;95231.25;4704057;30;20204;-87
2022/01/21 00:35:55;;;;;;;6.43;1.77;;;0.50;74.00;;;-0.92;61.80;95230.78;4704804;30;20288;-87
2022/01/21 00:38:25;;;;;;;3.72;1.58;;;0.40;73.40;;;-0.91;61.63;95235.00;4703991;30;20300;-87
2022/01/21 00:40:55;;;;;;;6.43;1.70;;;0.40;73.80;;;-0.98;61.84;95229.50;4717966;30;20228;-87
2022/01/21 00:43:31;;;;;;;5.68;1.73;;;0.30;73.50;;;-1.06;61.78;95229.22;4719116;30;20235;-87
2022/01/21 00:46:02;;;;;;;2.25;1.58;;;0.30;73.60;;;-1.07;61.53;95237.88;4691132;30;20269;-88
2022/01/21 00:48:31;;;;;;;3.13;1.50;;;0.30;73.40;;;-1.04;61.51;95252.28;4718202;30;20212;-88
2022/01/21 00:50:58;;;;;;;6.35;1.80;;;0.30;73.90;;;-1.11;61.90;95251.09;4703157;30;20212;-86
2022/01/21 00:53:26;;;;;;;2.53;1.80;;;0.20;73.80;;;-1.09;61.63;95255.19;4704109;30;20220;-87
2022/01/21 00:55:53;;;;;;;4.63;1.42;;;0.20;73.80;;;-1.10;61.72;95261.25;4703686;30;20212;-86
2022/01/21 00:58:21;;;;;;;4.30;1.70;;;0.20;73.60;;;-1.20;61.66;95260.28;4703912;30;20262;-86
2022/01/21 01:00:49;;;;;;;2.67;1.55;;;0.20;73.90;;;-1.17;61.57;95278.91;4703924;30;20243;-86
2022/01/21 01:03:19;;;;;;;4.10;2.05;;;0.10;74.00;;;-1.17;61.65;95291.78;4718228;30;20220;-88
2022/01/21 01:05:51;;;;;;;4.55;1.80;;;0.20;73.80;;;-1.19;61.75;95292.81;4718391;30;20243;-87
2022/01/21 01:08:19;;;;;;;7.22;1.83;;;0.10;73.50;;;-1.20;61.66;95304.06;4717800;30;20200;-87
2022/01/21 01:21:44;;;;;;;4.70;1.98;;;0.00;74.00;;;-1.46;61.90;95292.09;4717887;30;20240;-86
2022/01/21 01:29:26;;;;;;;3.78;1.90;;;-0.10;74.20;;;-1.45;61.99;95291.19;4703848;30;20228;-87
2022/01/21 01:31:53;;;;;;;3.35;2.03;;;-0.10;74.20;;;-1.43;62.05;95305.69;4714920;30;20209;-86
2022/01/21 01:34:21;;;;;;;4.97;1.90;;;-0.10;74.40;;;-1.33;62.36;95324.69;4729408;30;20287;-86
2022/01/21 01:36:48;;;;;;;4.13;1.95;;;-0.10;74.40;;;-1.38;62.20;95306.19;4717427;30;20244;-86
2022/01/21 01:39:29;;;;;;;4.63;1.90;;;-0.10;74.60;;;-1.32;62.07;95316.88;4717923;30;20703;-86
2022/01/21 01:50:09;;;;;;;3.95;1.80;;;0.00;74.70;;;-1.19;62.13;95314.22;4719376;30;20234;-86
2022/01/21 01:52:36;;;;;;;4.53;1.95;;;0.00;74.70;;;-1.13;62.16;95326.66;4717457;30;20212;-85
2022/01/21 01:55:05;;;;;;;6.47;2.00;;;0.00;74.60;;;-1.09;61.98;95329.84;4702650;30;20333;-86
2022/01/21 01:57:33;;;;;;;4.47;2.10;;;0.00;74.60;;;-1.09;61.99;95334.97;4713672;30;20213;-86
2022/01/21 02:00:04;;;;;;;6.63;2.45;;;0.10;74.70;;;-1.16;62.00;95326.06;4714139;30;20590;-86
2022/01/21 02:02:40;;;;;;;6.63;1.90;;;0.10;74.60;;;-1.07;61.87;95337.47;4708590;30;20721;-86
2022/01/21 02:05:08;;;;;;;2.88;1.80;;;0.10;74.60;;;-1.06;61.75;95336.50;4702750;30;20236;-87
2022/01/21 02:07:36;;;;;;;6.40;2.00;;;0.10;74.60;;;-1.11;61.91;95334.28;4702654;30;20309;-87
2022/01/21 02:10:04;;;;;;;5.00;1.90;;;0.20;74.60;;;-1.07;62.00;95332.31;4716784;30;20655;-86
2022/01/21 02:12:34;;;;;;;4.25;2.20;;;0.10;74.50;;;-1.05;61.70;95344.16;4699409;30;20213;-87
2022/01/21 02:15:02;;;;;;;5.45;2.08;;;0.20;74.60;;;-1.09;61.69;95337.56;4685299;30;20700;-87
2022/01/21 02:22:48;;;;;;;6.55;2.63;;;0.10;74.50;;;-1.13;61.46;95344.69;4706706;30;20638;-87
2022/01/21 02:25:19;;;;;;;5.95;2.08;;;0.10;74.20;;;-1.11;61.13;95339.44;4713301;30;20279;-86
2022/01/21 02:27:51;;;;;;;7.68;2.38;;;0.10;74.30;;;-1.14;61.49;95343.03;4699861;30;20209;-86
2022/01/21 02:30:22;;;;;;;4.05;2.00;;;0.10;74.20;;;-1.08;61.22;95362.38;4716501;30;20231;-86
2022/01/21 02:32:59;;;;;;;3.03;1.92;;;0.20;74.20;;;-1.05;61.13;95341.56;4702903;30;20215;-87
2022/01/21 02:35:26;;;;;;;4.72;2.20;;;0.10;74.70;;;-1.09;61.13;95353.00;4702495;30;20238;-87
2022/01/21 02:37:55;;;;;;;2.92;2.00;;;0.10;73.60;;;-1.10;60.71;95360.84;4702464;30;20212;-87
2022/01/21 02:40:22;;;;;;;5.10;2.05;;;0.10;73.80;;;-1.10;60.84;95364.22;4701703;30;20310;-86
2022/01/21 02:42:50;;;;;;;2.95;1.92;;;0.10;73.80;;;-1.24;60.93;95349.78;4701770;30;20232;-86
2022/01/21 02:45:19;;;;;;;3.17;2.10;;;0.10;73.90;;;-1.26;60.68;95358.53;4716385;30;20235;-86
2022/01/21 02:47:46;;;;;;;5.45;2.05;;;0.10;73.60;;;-1.26;60.86;95361.09;4715915;30;20300;-87
2022/01/21 02:50:16;;;;;;;7.03;2.20;;;0.10;73.50;;;-1.34;60.58;95371.94;4716068;30;20236;-87
2022/01/21 02:53:11;;;;;;;6.72;2.40;;;0.00;73.30;;;-1.40;60.56;95373.19;4702073;30;20307;-86
2022/01/21 02:55:39;;;;;;;4.97;2.20;;;0.00;73.30;;;-1.48;60.60;95375.47;4716605;30;20642;-86
2022/01/21 02:58:06;;;;;;;3.45;2.05;;;-0.10;72.80;;;-1.54;60.45;95386.19;4702065;30;20234;-86
2022/01/21 03:00:37;;;;;;;5.95;2.00;;;-0.10;73.10;;;-1.65;60.55;95374.06;4713176;30;20510;-86
2022/01/21 03:03:06;;;;;;;6.03;1.88;;;-0.20;73.20;;;-1.61;60.27;95398.66;4685126;30;20209;-86
2022/01/21 03:05:35;;;;;;;6.18;2.33;;;-0.20;73.20;;;-1.67;60.72;95404.19;4670939;30;20703;-87
2022/01/21 03:08:04;;;;;;;4.13;1.90;;;-0.20;73.30;;;-1.61;60.45;95411.50;4684996;30;20219;-87
2022/01/21 03:10:32;;;;;;;6.18;2.47;;;-0.30;73.10;;;-1.64;60.52;95406.56;4688882;30;20224;-87
2022/01/21 03:13:00;;;;;;;8.02;2.30;;;-0.30;73.20;;;-1.63;60.56;95421.88;4716662;30;20212;-87
2022/01/21 03:15:27;;;;;;;6.40;2.47;;;-0.30;73.40;;;-1.67;60.37;95419.63;4699634;30;20232;-86
2022/01/21 03:17:55;;;;;;;5.60;2.13;;;-0.30;73.10;;;-1.77;60.03;95407.41;4713752;30;20311;-86
2022/01/21 03:20:23;;;;;;;4.10;2.10;;;-0.30;73.20;;;-1.69;60.28;95426.63;4703794;30;20236;-86
2022/01/21 03:22:51;;;;;;;4.30;2.20;;;-0.40;73.10;;;-1.79;60.06;95424.66;4713725;30;20314;-86
2022/01/21 03:25:18;;;;;;;4.30;2.10;;;-0.40;73.00;;;-1.75;60.10;95430.44;4727896;30;20283;-86
2022/01/21 03:27:46;;;;;;;4.93;2.08;;;-0.40;72.80;;;-1.80;60.06;95427.34;4713613;30;20480;-86
2022/01/21 03:30:13;;;;;;;3.22;2.22;;;-0.50;72.90;;;-1.89;59.77;95422.81;4730177;30;20231;-86
2022/01/21 03:32:48;;;;;;;7.53;2.42;;;-0.50;72.90;;;-1.95;59.99;95427.44;4716314;30;20208;-86
2022/01/21 03:35:15;;;;;;;3.35;1.92;;;-0.50;72.80;;;-1.93;59.92;95435.06;4704480;30;20236;-86
2022/01/21 03:37:43;;;;;;;4.30;1.85;;;-0.50;72.80;;;-2.00;60.03;95423.53;4719394;30;20219;-86
2022/01/21 03:40:11;;;;;;;4.63;1.90;;;-0.50;72.70;;;-2.02;60.18;95433.91;4721290;30;20250;-86
2022/01/21 03:42:39;;;;;;;4.85;1.88;;;-0.60;72.80;;;-2.08;60.21;95431.75;4704944;30;20243;-87
2022/01/21 03:45:08;;;;;;;4.18;2.00;;;-0.60;72.90;;;-2.04;60.61;95434.94;4704987;30;20279;-86
2022/01/21 03:47:36;;;;;;;2.97;2.28;;;-0.70;73.00;;;-2.14;60.52;95424.44;4705161;30;20251;-86
2022/01/21 03:50:30;;;;;;;3.95;2.05;;;-0.70;73.10;;;-2.05;60.56;95441.00;4702896;30;20229;-86
2022/01/21 03:53:00;;;;;;;3.92;2.00;;;-0.70;73.20;;;-2.07;60.10;95440.31;4727688;30;20240;-86
2022/01/21 03:55:28;;;;;;;2.67;2.20;;;-0.70;73.20;;;-2.10;60.37;95437.00;4687969;30;20576;-86
2022/01/21 03:57:56;;;;;;;4.15;2.00;;;-0.70;73.20;;;-2.18;60.50;95438.44;4694621;30;20471;-86
2022/01/21 04:00:29;;;;;;;7.75;2.13;;;-0.70;73.20;;;-2.16;60.47;95446.84;4716546;30;20227;-86
2022/01/21 04:02:58;;;;;;;4.57;2.22;;;-0.70;73.00;;;-2.28;60.34;95441.59;4716217;30;20256;-86
2022/01/21 04:05:27;;;;;;;9.25;2.20;;;-0.80;73.00;;;-2.29;60.30;95449.41;4702019;30;20233;-86
2022/01/21 04:07:55;;;;;;;5.90;2.08;;;-0.70;73.00;;;-2.33;60.49;95451.34;4717109;30;20217;-86
2022/01/21 04:10:23;;;;;;;5.78;2.40;;;-0.80;73.00;;;-2.41;60.26;95456.16;4704715;30;20289;-86
2022/01/21 04:12:51;;;;;;;5.47;1.70;;;-0.90;72.90;;;-2.38;60.50;95460.28;4704544;30;20712;-87
2022/01/21 04:15:19;;;;;;;4.25;2.03;;;-0.90;73.00;;;-2.42;60.43;95463.06;4719225;30;20782;-86
2022/01/21 04:17:46;;;;;;;7.10;2.20;;;-0.90;73.00;;;-2.47;60.59;95462.50;4719128;30;20222;-86
2022/01/21 04:20:16;;;;;;;4.40;1.90;;;-1.00;73.00;;;-2.44;60.72;95476.88;4719125;30;20235;-86
2022/01/21 04:22:44;;;;;;;8.35;2.03;;;-1.00;73.00;;;-2.52;60.25;95479.16;4718355;30;20244;-86
2022/01/21 04:25:11;;;;;;;8.50;2.35;;;-1.00;73.00;;;-2.56;60.37;95470.81;4687178;30;20224;-86
2022/01/21 04:27:39;;;;;;;6.65;2.50;;;-1.10;72.80;;;-2.64;60.42;95476.41;4701856;30;20743;-87
2022/01/21 04:30:09;;;;;;;3.22;1.77;;;-1.10;72.80;;;-2.65;60.54;95473.94;4687334;30;20287;-86
2022/01/21 04:32:37;;;;;;;5.78;2.00;;;-1.10;72.90;;;-2.76;60.51;95484.88;4704013;30;20240;-87
2022/01/21 04:35:09;;;;;;;6.65;1.92;;;-1.20;72.80;;;-2.81;60.73;95474.09;4705553;30;20234;-87
2022/01/21 04:37:43;;;;;;;7.10;2.30;;;-1.20;72.90;;;-2.82;60.90;95486.13;4718702;30;20244;-86
2022/01/21 04:40:15;;;;;;;6.85;2.17;;;-1.20;73.00;;;-2.92;60.79;95488.44;4705173;30;20695;-86
2022/01/21 04:48:17;;;;;;;5.15;1.80;;;-1.40;73.10;;;-3.00;60.95;95493.19;4718149;30;20213;-86
2022/01/21 04:50:57;;;;;;;5.22;2.15;;;-1.40;73.10;;;-2.98;60.79;95488.81;4702530;30;20236;-85
2022/01/21 04:53:32;;;;;;;7.43;2.13;;;-1.50;73.10;;;-3.03;61.01;95505.41;4705336;30;20215;-86
2022/01/21 04:56:17;;;;;;;5.78;2.30;;;-1.50;73.20;;;-3.15;61.11;95489.84;4706700;30;20266;-86
2022/01/21 04:58:45;;;;;;;9.23;2.38;;;-1.50;73.20;;;-3.16;60.87;95480.50;4703708;30;20224;-86
2022/01/21 05:01:13;;;;;;;5.22;2.38;;;-1.60;73.10;;;-3.12;61.24;95492.19;4703172;30;20221;-85
2022/01/21 05:03:42;;;;;;;7.00;2.45;;;-1.60;73.20;;;-3.19;61.32;95482.41;4703593;30;20212;-87
2022/01/21 05:06:09;;;;;;;9.27;2.25;;;-1.60;73.30;;;-3.27;61.41;95480.28;4703987;30;20212;-85
2022/01/21 05:11:07;;;;;;;6.70;2.20;;;-1.70;73.40;;;-3.22;61.57;95498.81;4712018;30;20232;-87
2022/01/21 05:13:41;;;;;;;7.88;2.20;;;-1.70;73.50;;;-3.18;61.41;95502.84;4714625;30;20639;-88
2022/01/21 05:16:31;;;;;;;4.75;2.00;;;-1.70;73.40;;;-3.26;61.33;95505.88;4716007;30;20212;-87
2022/01/21 05:19:13;;;;;;;3.40;1.90;;;-1.70;73.40;;;-3.23;61.28;95517.69;4720126;30;20243;-86
2022/01/21 05:21:51;;;;;;;5.38;2.10;;;-1.70;73.50;;;-3.25;61.49;95532.34;4718682;30;20570;-85
2022/01/21 05:24:26;;;;;;;10.30;2.60;;;-1.70;73.40;;;-3.36;61.63;95525.28;4717932;30;20244;-87
2022/01/21 05:26:57;;;;;;;6.55;2.15;;;-1.80;74.30;;;-3.27;61.40;95523.91;4714755;30;20238;-85
2022/01/21 05:29:46;;;;;;;7.75;2.15;;;-1.80;73.40;;;-3.30;61.39;95532.63;4715622;30;20326;-85
2022/01/21 05:32:21;;;;;;;7.10;2.00;;;-1.80;73.50;;;-3.26;61.39;95538.38;4703987;30;20226;-86
2022/01/21 05:34:59;;;;;;;5.65;2.00;;;-1.80;73.60;;;-3.33;61.53;95514.00;4717698;30;20232;-86
2022/01/21 05:37:49;;;;;;;9.55;2.28;;;-1.80;73.60;;;-3.24;61.66;95518.59;4710719;30;20217;-85
2022/01/21 05:40:37;;;;;;;6.93;1.90;;;-1.80;73.60;;;-3.27;61.69;95521.34;4704796;30;20247;-87
2022/01/21 05:43:29;;;;;;;5.65;2.22;;;-1.80;73.80;;;-3.24;61.54;95527.13;4714725;30;20233;-87
2022/01/21 05:46:26;;;;;;;6.57;2.33;;;-1.80;73.90;;;-3.16;61.64;95526.69;4699789;30;20295;-85
2022/01/21 05:49:03;;;;;;;6.20;2.38;;;-1.80;73.80;;;-3.15;61.42;95535.19;4718469;30;20326;-85
2022/01/21 05:52:02;;;;;;;4.88;1.92;;;-1.70;73.70;;;-3.13;61.40;95541.06;4717407;30;20204;-86
2022/01/21 05:54:50;;;;;;;7.40;2.15;;;-1.70;74.70;;;-3.10;61.48;95538.28;4706225;30;20262;-86
2022/01/21 05:57:36;;;;;;;4.95;1.80;;;-1.70;73.80;;;-3.14;61.34;95527.38;4711666;30;20212;-86
2022/01/21 06:00:04;;;;;;;3.60;1.90;;;-1.70;73.70;;;-3.16;61.39;95541.22;4671324;30;20235;-85
2022/01/21 06:02:32;;;;;;;11.05;2.22;;;-1.70;73.70;;;-3.07;61.35;95551.75;4685919;30;20596;-86
2022/01/21 06:05:00;;;;;;;7.43;2.00;;;-1.70;73.70;;;-3.12;61.13;95552.97;4685649;30;20651;-86
2022/01/21 06:07:28;;;;;;;6.68;2.40;;;-1.70;73.60;;;-3.09;61.03;95557.91;4701949;30;20200;-85
2022/01/21 06:09:55;;;;;;;4.32;2.22;;;-1.60;73.60;;;-3.15;60.86;95558.28;4716479;30;20259;-86
2022/01/21 06:12:23;;;;;;;4.60;2.25;;;-1.60;73.60;;;-3.13;61.00;95567.53;4702514;30;20204;-86
2022/01/21 06:14:51;;;;;;;5.65;2.05;;;-1.60;73.50;;;-3.08;60.67;95578.34;4702539;30;20674;-85
2022/01/21 06:17:18;;;;;;;4.50;2.00;;;-1.70;73.50;;;-3.09;61.17;95570.75;4702782;30;20219;-86
2022/01/21 06:19:46;;;;;;;5.18;2.17;;;-1.60;73.50;;;-3.06;61.18;95591.91;4716207;30;20236;-85
2022/01/21 06:22:15;;;;;;;8.57;2.20;;;-1.60;73.70;;;-3.07;60.94;95595.38;4701998;30;20267;-86
2022/01/21 06:24:44;;;;;;;6.10;2.10;;;-1.60;74.50;;;-3.03;61.18;95595.22;4702598;30;20220;-85
2022/01/21 06:27:12;;;;;;;7.00;2.50;;;-1.60;73.50;;;-2.98;61.22;95606.88;4713519;30;20680;-86
2022/01/21 06:29:40;;;;;;;3.92;2.38;;;-1.60;74.60;;;-3.01;60.87;95593.41;4688637;30;20306;-87
2022/01/21 06:32:07;;;;;;;4.57;2.28;;;-1.60;73.70;;;-2.94;60.87;95603.19;4701354;30;20304;-87
2022/01/21 06:34:35;;;;;;;4.70;2.00;;;-1.60;73.70;;;-2.93;61.08;95611.69;4687672;30;20243;-86
2022/01/21 06:37:03;;;;;;;6.03;2.33;;;-1.60;73.60;;;-2.93;61.27;95607.41;4701911;30;20212;-86
2022/01/21 06:39:31;;;;;;;8.65;2.53;;;-1.60;73.60;;;-2.90;60.68;95602.06;4697702;30;20256;-88
2022/01/21 06:41:58;;;;;;;4.82;2.20;;;-1.50;73.80;;;-2.82;60.99;95616.19;4725173;30;20232;-86
2022/01/21 06:44:25;;;;;;;6.03;2.28;;;-1.50;73.60;;;-2.80;60.73;95615.19;4706094;30;20252;-85
2022/01/21 06:46:54;;;;;;;4.47;2.30;;;-1.50;73.60;;;-2.76;60.99;95618.41;4702312;30;20289;-86
2022/01/21 06:49:22;;;;;;;5.82;2.63;;;-1.50;74.60;;;-2.72;61.20;95619.03;4713532;30;20782;-86
2022/01/21 06:51:49;;;;;;;6.88;2.78;;;-1.50;73.70;;;-2.67;60.95;95617.00;4699221;30;20312;-86
2022/01/21 06:54:16;;;;;;;7.60;2.65;;;-1.40;73.80;;;-2.66;60.95;95626.38;4711930;30;20298;-85
2022/01/21 06:56:44;;;;;;;5.28;2.60;;;-1.40;73.80;;;-2.63;60.67;95626.19;4729844;30;20743;-85
2022/01/21 06:59:11;;;;;;;6.90;2.60;;;-1.40;73.70;;;-2.62;60.68;95613.25;4699188;30;20232;-86
2022/01/21 07:01:40;;;;;;;3.90;2.00;;;-1.30;73.70;;;-2.58;60.70;95613.88;4698127;30;20221;-85
2022/01/21 07:04:08;;;;;;;4.95;2.10;;;-1.30;73.70;;;-2.63;60.45;95615.91;4702029;30;20334;-86
2022/01/21 07:06:35;;;;;;;7.35;2.22;;;-1.30;73.50;;;-2.57;60.33;95607.84;4703022;30;20283;-82
2022/01/21 07:09:02;;;;;;;6.57;2.13;;;-1.30;73.50;;;-2.55;60.47;95620.59;4685599;30;20259;-84
2022/01/21 07:11:30;;;;;;;6.90;2.55;;;-1.30;73.40;;;-2.55;60.29;95618.00;4705254;30;20200;-85
2022/01/21 07:13:57;;;;;;;4.63;2.25;;;-1.20;73.40;;;-2.55;60.11;95613.72;4719325;30;20254;-85
2022/01/21 07:16:24;;;;;;;10.65;2.13;;;-1.20;73.40;;;-2.54;60.09;95617.09;4719974;30;20676;-85
2022/01/21 07:18:52;;;;;;;5.35;2.20;;;-1.20;73.30;;;-2.61;60.34;95608.97;4719926;30;20231;-84
2022/01/21 07:21:20;;;;;;;5.07;2.20;;;-1.20;73.40;;;-2.63;60.14;95609.03;4705808;30;20246;-85
2022/01/21 07:23:47;;;;;;;5.43;2.13;;;-1.20;73.20;;;-2.59;59.98;95620.78;4719603;30;20239;-85
2022/01/21 07:26:14;;;;;;;8.07;2.30;;;-1.20;73.20;;;-2.55;60.35;95631.69;4705306;30;20223;-86
2022/01/21 07:28:42;;;;;;;6.53;2.38;;;-1.20;73.30;;;-2.60;59.76;95611.44;4705311;30;20219;-85
2022/01/21 07:31:10;;;;;;;6.95;2.50;;;-1.30;73.10;;;-2.62;60.08;95618.38;4704819;30;20223;-86
2022/01/21 07:33:38;;;;;;;8.60;4.05;;;-1.20;73.20;;;-2.55;60.01;95621.41;4715645;30;20290;-85
2022/01/21 07:36:06;;;;;;;6.15;2.40;;;-1.30;73.10;;;-2.55;59.88;95625.72;4674041;30;20213;-84
2022/01/21 07:38:34;;;;;;;6.40;2.40;;;-1.20;73.00;;;-2.60;59.71;95624.25;4702498;30;20223;-86
2022/01/21 07:41:01;;;;;;;6.60;2.40;;;-1.20;73.00;;;-2.65;59.75;95618.59;4678478;30;20272;-85
2022/01/21 07:43:29;;;;;;;9.68;2.65;;;-1.30;73.00;;;-2.63;59.63;95634.72;4704739;30;20243;-85
2022/01/21 07:45:57;;;;;;;6.78;2.17;;;-1.30;72.80;;;-2.61;59.61;95626.94;4705362;30;20274;-85
2022/01/21 07:48:25;;;;;;;6.35;1.92;;;-1.20;72.80;;;-2.62;59.60;95628.66;4719037;30;20218;-85
2022/01/21 07:50:52;;;;;;;8.18;2.35;;;-1.30;72.70;;;-2.63;59.72;95629.56;4704976;30;20239;-84
2022/01/21 07:53:20;;;;;;;3.72;2.00;;;-1.30;72.80;;;-2.65;59.28;95617.75;4703974;30;20274;-85
2022/01/21 07:55:50;;;;;;;4.68;1.75;;;-1.30;72.80;;;-2.64;59.66;95635.63;4715266;30;20727;-85
2022/01/21 07:58:19;;;;;;;7.60;2.45;;;-1.30;72.80;;;-2.66;59.42;95616.94;4704385;30;20215;-85
2022/01/21 08:00:46;;;;;;;4.40;2.05;;;-1.30;72.80;;;-2.59;59.45;95619.94;4704865;30;20247;-86
2022/01/21 08:03:15;;;;;;;6.45;2.30;;;-1.30;72.80;;;-2.52;59.74;95603.25;4701482;30;20229;-86
2022/01/21 08:05:44;;;;;;;5.65;2.25;;;-1.30;73.00;;;-2.49;59.55;95585.09;4690047;30;20786;-84
2022/01/21 08:08:11;;;;;;;7.90;2.55;;;-1.20;72.80;;;-2.42;59.09;95611.19;4718980;30;20223;-85
2022/01/21 08:10:39;;;;;;;7.75;2.60;;;-1.20;72.80;;;-2.37;59.05;95631.47;4714618;30;20250;-85
2022/01/21 08:13:07;;;;;;;5.55;2.13;;;-1.20;73.00;;;-2.34;59.06;95592.75;4701673;30;20220;-86
2022/01/21 08:15:35;;;;;;;4.78;2.28;;;-1.20;72.90;;;-2.31;58.84;95608.78;4718187;30;20252;-86
2022/01/21 08:18:03;;;;;;;5.97;2.30;;;-1.10;72.90;;;-2.24;58.94;95603.28;4716265;30;20289;-85
2022/01/21 08:20:31;;;;;;;7.05;2.30;;;-1.10;72.70;;;-2.25;58.59;95599.88;4715273;30;20240;-86
2022/01/21 08:22:58;;;;;;;7.03;2.28;;;-1.00;72.80;;;-2.20;58.38;95604.72;4701102;30;20328;-86
2022/01/21 08:25:25;;;;;;;11.45;2.60;;;-1.00;72.70;;;-2.10;57.98;95616.91;4687229;30;20228;-84
2022/01/21 08:27:53;;;;;;;6.68;2.40;;;-0.90;72.40;;;-2.11;57.55;95599.84;4697607;30;20656;-86
2022/01/21 08:30:21;;;;;;;6.10;2.25;;;-0.90;72.30;;;-2.01;58.04;95612.13;4703243;30;20231;-85
2022/01/21 08:32:48;;;;;;;6.75;2.20;;;-0.90;72.70;;;-1.98;57.33;95610.19;4715774;30;20564;-86
2022/01/21 08:35:15;;;;;;;6.57;2.17;;;-0.80;72.40;;;-1.93;58.04;95612.44;4686822;30;20277;-85
2022/01/21 08:37:42;;;;;;;8.10;2.50;;;-0.80;72.50;;;-1.87;57.36;95621.53;4672921;30;20220;-85
2022/01/21 08:40:11;;;;;;;6.68;2.38;;;-0.80;72.20;;;-1.86;57.36;95618.03;4692359;30;20295;-83
2022/01/21 08:42:39;;;;;;;7.05;2.47;;;-0.80;72.20;;;-1.81;57.07;95629.69;4717895;30;20232;-87
2022/01/21 08:45:07;;;;;;;8.18;2.42;;;-0.70;72.20;;;-1.83;56.83;95653.81;4701313;30;20233;-84
2022/01/21 08:47:34;;;;;;;9.98;2.30;;;-0.70;71.60;;;-1.78;56.72;95631.22;4705273;30;20688;-85
2022/01/21 08:50:06;;;;;;;6.60;1.90;;;-0.70;71.90;;;-1.80;56.98;95636.44;4702061;30;20276;-85
2022/01/21 08:52:37;;;;;;;6.13;2.30;;;-0.70;72.10;;;-1.71;57.19;95637.63;4709623;30;20216;-85
2022/01/21 08:55:10;;;;;;;7.40;2.20;;;-0.60;72.00;;;-1.65;57.10;95652.66;4704071;30;20240;-85
2022/01/21 08:57:40;;;;;;;12.57;2.40;;;-0.60;71.90;;;-1.58;57.01;95635.06;4693923;30;20697;-85
2022/01/21 09:00:14;;;;;;;9.52;2.40;;;-0.50;72.00;;;-1.57;56.75;95628.19;4700025;30;20243;-84
2022/01/21 09:02:41;;;;;;;9.75;2.00;;;-0.50;71.80;;;-1.50;57.17;95627.69;4686505;30;20237;-84
2022/01/21 09:05:10;;;;;;;6.55;2.30;;;-0.40;71.70;;;-1.43;56.84;95619.56;4703501;30;20251;-85
2022/01/21 09:07:38;;;;;;;5.35;2.30;;;-0.40;72.70;;;-1.36;56.91;95638.84;4710754;30;20205;-86
2022/01/21 09:10:08;;;;;;;8.68;2.42;;;-0.30;71.90;;;-1.28;56.49;95641.72;4705597;30;20236;-84
2022/01/21 09:12:36;;;;;;;6.07;2.50;;;-0.30;71.70;;;-1.25;56.11;95653.56;4718260;30;20239;-86
2022/01/21 09:15:06;;;;;;;4.55;2.45;;;-0.30;71.60;;;-1.23;55.85;95644.81;4718121;30;20282;-85
2022/01/21 09:17:35;;;;;;;9.13;2.08;;;-0.20;71.30;;;-1.19;55.62;95637.72;4714900;30;20220;-87
2022/01/21 09:20:05;;;;;;;10.60;2.70;;;-0.20;71.00;;;-1.23;55.80;95626.81;4701743;30;20248;-84
2022/01/21 09:22:32;;;;;;;5.65;2.40;;;-0.10;71.20;;;-1.19;54.91;95632.56;4671973;30;20220;-86
2022/01/21 09:25:00;;;;;;;6.18;2.30;;;-0.10;70.80;;;-1.15;55.40;95647.72;4700858;30;20353;-86
2022/01/21 09:27:27;;;;;;;5.30;2.38;;;-0.10;71.00;;;-1.06;55.02;95664.31;4714828;30;20660;-84
2022/01/21 09:29:54;;;;;;;5.70;2.20;;;-0.10;71.00;;;-1.08;55.42;95652.47;4713309;30;20327;-84
2022/01/21 09:32:21;;;;;;;7.13;2.30;;;0.00;70.60;;;-0.97;54.68;95644.84;4716907;30;20245;-84
2022/01/21 09:34:49;;;;;;;7.22;2.20;;;0.00;70.70;;;-0.97;54.89;95645.66;4703071;30;20224;-83
2022/01/21 09:37:16;;;;;;;6.70;2.28;;;0.00;70.40;;;-0.91;53.81;95649.56;4716616;30;20286;-84
2022/01/21 09:39:43;;;;;;;6.15;2.28;;;0.10;70.50;;;-0.86;54.14;95662.16;4716637;30;20228;-83
2022/01/21 09:42:14;;;;;;;6.55;2.35;;;0.10;70.30;;;-0.87;54.50;95653.59;4702340;30;20212;-86
2022/01/21 09:44:44;;;;;;;8.70;2.28;;;0.10;70.10;;;-0.79;53.80;95652.25;4716736;30;20244;-84
2022/01/21 09:47:15;;;;;;;3.92;2.10;;;0.20;70.00;;;-0.74;54.34;95653.59;4716864;30;20215;-84
2022/01/21 09:49:44;;;;;;;5.05;2.10;;;0.20;70.30;;;-0.71;54.68;95637.09;4702303;30;20250;-84
2022/01/21 09:52:17;;;;;;;4.45;2.50;;;0.20;70.40;;;-0.58;53.95;95650.78;4717120;30;20352;-84
2022/01/21 09:54:47;;;;;;;5.85;2.85;;;0.30;70.40;;;-0.56;53.53;95650.69;4717505;30;20309;-85
2022/01/21 09:57:22;;;;;;;8.02;2.40;;;0.40;69.70;;;-0.58;52.89;95619.88;4717424;30;20204;-84
2022/01/21 09:59:51;;;;;;;4.07;2.10;;;0.40;69.20;;;-0.49;53.55;95639.03;4700300;30;20704;-83
2022/01/21 10:02:26;;;;;;;4.90;2.05;;;0.40;69.80;;;-0.50;52.42;95638.22;4716450;30;20204;-84
2022/01/21 10:04:55;;;;;;;7.47;2.25;;;0.50;69.20;;;-0.46;52.73;95628.53;4717119;30;20254;-83
2022/01/21 10:07:23;;;;;;;7.75;2.35;;;0.50;69.20;;;-0.45;52.66;95631.91;4707620;30;20365;-84
2022/01/21 10:09:53;;;;;;;11.88;2.60;;;0.50;69.20;;;-0.46;51.83;95648.28;4693549;30;20739;-84
2022/01/21 10:12:22;;;;;;;6.32;2.05;;;0.60;69.30;;;-0.40;51.35;95637.59;4714196;30;20211;-84
2022/01/21 10:14:50;;;;;;;8.00;2.50;;;0.50;69.20;;;-0.49;51.00;95614.09;4713726;30;20228;-84
2022/01/21 10:17:40;;;;;;;5.00;2.10;;;0.60;68.60;;;-0.45;52.11;95617.28;4718059;30;20212;-84
2022/01/21 10:20:27;;;;;;;8.82;2.05;;;0.60;69.00;;;-0.37;51.93;95629.63;4718763;30;20251;-84
2022/01/21 10:23:06;;;;;;;5.72;2.35;;;0.60;69.30;;;-0.37;51.67;95627.06;4716473;30;20236;-85
2022/01/21 10:25:36;;;;;;;4.22;2.05;;;0.60;68.60;;;-0.28;51.90;95630.75;4716530;30;20228;-86
2022/01/21 10:28:22;;;;;;;6.70;2.00;;;0.60;68.50;;;-0.25;51.95;95646.00;4696891;30;20258;-84
2022/01/21 10:31:16;;;;;;;8.48;2.30;;;0.70;69.00;;;-0.19;51.78;95633.50;4703357;30;20209;-85
2022/01/21 10:33:49;;;;;;;9.30;2.10;;;0.70;68.70;;;-0.19;50.19;95640.44;4716871;30;20251;-85
2022/01/21 10:36:26;;;;;;;2.95;1.75;;;0.70;67.80;;;-0.22;49.94;95627.72;4704228;30;20219;-85
2022/01/21 10:39:29;;;;;;;9.02;2.15;;;0.70;67.70;;;-0.30;49.94;95623.13;4685642;30;20233;-85
2022/01/21 10:41:58;;;;;;;7.22;2.00;;;0.70;66.50;;;-0.25;49.85;95628.78;4702243;30;20767;-85
2022/01/21 10:44:30;;;;;;;4.10;2.10;;;0.70;67.30;;;-0.26;50.17;95618.59;4715870;30;20240;-85
2022/01/21 10:47:03;;;;;;;4.18;1.80;;;0.70;67.20;;;-0.22;50.19;95641.47;4701542;30;20219;-85
2022/01/21 10:49:30;;;;;;;4.63;2.00;;;0.70;67.30;;;-0.20;49.24;95646.50;4716462;30;20238;-85
2022/01/21 10:51:58;;;;;;;3.50;1.70;;;0.80;67.20;;;-0.22;50.12;95613.09;4702218;30;20655;-84
2022/01/21 10:54:29;;;;;;;3.63;1.90;;;0.80;67.40;;;-0.13;49.69;95632.25;4692655;30;20263;-85
2022/01/21 10:57:19;;;;;;;3.72;1.92;;;0.80;67.30;;;-0.09;48.47;95643.19;4716599;30;20204;-84
2022/01/21 10:59:59;;;;;;;7.70;2.45;;;0.90;66.70;;;-0.08;50.31;95616.47;4702173;30;20249;-85
2022/01/21 11:02:43;;;;;;;2.80;1.65;;;0.80;67.30;;;-0.03;49.56;95622.13;4713424;30;20212;-85
2022/01/21 11:05:17;;;;;;;5.15;2.00;;;0.90;67.20;;;0.07;49.66;95630.03;4712994;30;20224;-84
2022/01/21 11:08:04;;;;;;;3.40;1.85;;;0.90;67.00;;;0.08;48.86;95603.31;4717052;30;20671;-86
2022/01/21 11:10:32;;;;;;;5.53;2.20;;;1.00;66.60;;;0.11;49.11;95603.91;4715098;30;20596;-84
2022/01/21 11:13:12;;;;;;;3.35;1.98;;;1.00;67.00;;;0.17;48.44;95625.03;4714939;30;20307;-85
2022/01/21 11:15:48;;;;;;;4.68;1.75;;;1.10;66.70;;;0.13;48.44;95594.28;4715324;30;20231;-85
2022/01/21 11:18:51;;;;;;;6.15;1.95;;;1.10;66.30;;;0.21;48.29;95600.66;4716024;30;20208;-85
2022/01/21 11:21:18;;;;;;;3.63;1.90;;;1.20;66.10;;;0.20;47.78;95597.25;4716067;30;20240;-85
2022/01/21 11:23:46;;;;;;;4.65;1.67;;;1.20;66.30;;;0.17;47.60;95586.34;4703563;30;20244;-85